createdAt,value
2017-09-12T00:01:49.108Z,23.10
2017-09-12T00:04:16.527Z,23.08
2017-09-12T00:06:44.084Z,23.10
2017-09-12T00:09:11.524Z,23.10
2017-09-12T00:11:38.974Z,23.09
2017-09-12T00:14:06.451Z,23.09
2017-09-12T00:16:33.888Z,23.09
2017-09-12T00:19:01.338Z,23.08
2017-09-12T00:21:28.775Z,23.07
2017-09-12T00:23:56.237Z,23.07
2017-09-12T00:26:23.665Z,23.06
2017-09-12T00:28:51.138Z,23.07
2017-09-12T00:31:18.563Z,23.07
2017-09-12T00:33:45.987Z,23.06
2017-09-12T00:36:13.461Z,23.05
2017-09-12T00:38:41.017Z,23.06
2017-09-12T00:41:08.461Z,23.08
2017-09-12T00:43:35.893Z,23.06
2017-09-12T00:46:03.297Z,23.06
2017-09-12T00:48:30.715Z,23.06
2017-09-12T00:50:58.164Z,23.06
2017-09-12T00:53:26.726Z,23.05
2017-09-12T00:55:54.140Z,23.05
2017-09-12T00:58:21.594Z,23.06
2017-09-12T01:00:49.178Z,23.05
2017-09-12T01:03:16.720Z,23.05
2017-09-12T01:05:44.172Z,23.05
2017-09-12T01:08:11.678Z,23.04
2017-09-12T01:10:39.116Z,23.04
2017-09-12T01:13:06.611Z,23.03
2017-09-12T01:15:34.044Z,23.04
2017-09-12T01:18:01.472Z,23.05
2017-09-12T01:20:28.913Z,23.05
2017-09-12T01:22:56.367Z,23.04
2017-09-12T01:25:23.826Z,23.04
2017-09-12T01:27:51.269Z,23.02
2017-09-12T01:30:18.689Z,23.03
2017-09-12T01:32:46.107Z,23.02
2017-09-12T01:35:13.533Z,23.04
2017-09-12T01:37:40.957Z,23.03
2017-09-12T01:40:08.445Z,23.01
2017-09-12T01:42:35.895Z,23.02
2017-09-12T01:45:03.323Z,23.02
2017-09-12T01:47:30.761Z,23.02
2017-09-12T01:49:58.213Z,23.02
2017-09-12T01:52:25.675Z,23.03
2017-09-12T01:54:53.064Z,23.02
2017-09-12T01:57:20.527Z,23.02
2017-09-12T01:59:47.957Z,23.01
2017-09-12T02:02:15.370Z,23.00
2017-09-12T02:04:42.808Z,23.00
2017-09-12T02:07:10.308Z,23.00
2017-09-12T02:09:37.739Z,23.00
2017-09-12T02:12:05.198Z,23.01
2017-09-12T02:14:32.625Z,23.01
2017-09-12T02:17:00.045Z,22.99
2017-09-12T02:19:27.497Z,23.01
2017-09-12T02:21:54.951Z,23.00
2017-09-12T02:24:22.761Z,23.00
2017-09-12T02:26:50.347Z,23.01
2017-09-12T02:29:17.785Z,23.00
2017-09-12T02:31:45.241Z,23.00
2017-09-12T02:34:12.715Z,23.00
2017-09-12T02:36:40.147Z,23.00
2017-09-12T02:39:07.621Z,23.01
2017-09-12T02:41:35.188Z,23.00
2017-09-12T02:44:02.683Z,22.99
2017-09-12T02:46:30.100Z,23.00
2017-09-12T02:48:57.528Z,23.01
2017-09-12T02:51:25.046Z,23.00
2017-09-12T02:53:52.492Z,22.99
2017-09-12T02:56:19.988Z,22.99
2017-09-12T02:58:47.416Z,22.98
2017-09-12T03:01:14.854Z,22.98
2017-09-12T03:03:42.302Z,22.98
2017-09-12T03:06:09.736Z,22.97
2017-09-12T03:08:37.166Z,22.98
2017-09-12T03:11:04.601Z,22.98
2017-09-12T03:13:32.017Z,22.98
2017-09-12T03:15:59.448Z,22.98
2017-09-12T03:18:26.968Z,22.97
2017-09-12T03:20:54.463Z,22.98
2017-09-12T03:23:21.890Z,22.96
2017-09-12T03:25:49.341Z,22.96
2017-09-12T03:28:16.751Z,22.97
2017-09-12T03:30:44.193Z,22.97
2017-09-12T03:33:11.619Z,22.98
2017-09-12T03:35:39.042Z,22.97
2017-09-12T03:38:06.467Z,22.97
2017-09-12T03:40:33.948Z,22.98
2017-09-12T03:43:01.372Z,22.97
2017-09-12T03:45:28.816Z,22.98
2017-09-12T03:47:56.394Z,22.96
2017-09-12T03:50:23.878Z,22.96
2017-09-12T03:52:51.294Z,22.96
2017-09-12T03:55:18.745Z,22.96
2017-09-12T03:57:46.166Z,22.96
2017-09-12T04:00:13.606Z,22.94
2017-09-12T04:02:41.045Z,22.94
2017-09-12T04:05:08.475Z,22.94
2017-09-12T04:07:35.906Z,22.93
2017-09-12T04:10:03.394Z,22.93
2017-09-12T04:12:30.822Z,22.93
2017-09-12T04:14:58.273Z,22.93
2017-09-12T04:17:25.721Z,22.94
2017-09-12T04:19:53.153Z,22.93
2017-09-12T04:22:20.563Z,22.93
2017-09-12T04:24:48.023Z,22.93
2017-09-12T04:27:15.476Z,22.94
2017-09-12T04:29:42.937Z,22.96
2017-09-12T04:32:10.461Z,22.96
2017-09-12T04:34:37.872Z,22.98
2017-09-12T04:37:05.296Z,22.99
2017-09-12T04:39:32.754Z,22.99
2017-09-12T04:42:00.189Z,22.99
2017-09-12T04:44:27.629Z,23.00
2017-09-12T04:46:55.100Z,23.00
2017-09-12T04:49:22.531Z,23.01
2017-09-12T04:51:49.972Z,23.01
2017-09-12T04:54:17.400Z,23.02
2017-09-12T04:56:44.815Z,23.01
2017-09-12T04:59:12.373Z,23.02
2017-09-12T05:01:39.808Z,23.00
2017-09-12T05:04:07.380Z,23.00
2017-09-12T05:06:34.852Z,23.00
2017-09-12T05:09:02.291Z,23.00
2017-09-12T05:11:29.707Z,23.01
2017-09-12T05:13:57.139Z,23.02
2017-09-12T05:16:24.603Z,23.00
2017-09-12T05:18:52.021Z,23.01
2017-09-12T05:21:19.466Z,23.00
2017-09-12T05:23:46.961Z,22.99
2017-09-12T05:26:14.393Z,22.99
2017-09-12T05:28:41.847Z,23.00
2017-09-12T05:31:09.534Z,23.01
2017-09-12T05:33:36.963Z,23.00
2017-09-12T05:36:05.271Z,22.99
2017-09-12T05:38:32.720Z,22.98
2017-09-12T05:41:00.124Z,22.99
2017-09-12T05:43:27.625Z,23.02
2017-09-12T05:45:55.321Z,23.02
2017-09-12T05:48:22.731Z,23.02
2017-09-12T05:50:50.153Z,23.03
2017-09-12T05:53:17.627Z,23.02
2017-09-12T05:55:45.040Z,23.00
2017-09-12T05:58:12.576Z,22.97
2017-09-12T06:00:40.019Z,22.99
2017-09-12T06:03:07.435Z,22.99
2017-09-12T06:05:34.854Z,22.97
2017-09-12T06:08:02.419Z,22.94
2017-09-12T06:10:29.867Z,22.95
2017-09-12T06:12:57.285Z,22.95
2017-09-12T06:15:24.747Z,22.95
2017-09-12T06:17:52.227Z,22.96
2017-09-12T06:20:19.648Z,22.93
2017-09-12T06:22:47.165Z,22.94
2017-09-12T06:25:14.595Z,22.95
2017-09-12T06:27:42.103Z,22.93
2017-09-12T06:30:09.566Z,22.94
2017-09-12T06:32:36.992Z,22.94
2017-09-12T06:35:04.595Z,22.93
2017-09-12T06:37:32.052Z,22.93
2017-09-12T06:39:59.469Z,22.93
2017-09-12T06:42:26.902Z,22.92
2017-09-12T06:44:54.360Z,22.92
2017-09-12T06:47:21.786Z,22.93
2017-09-12T06:49:49.238Z,22.93
2017-09-12T06:52:16.694Z,22.92
2017-09-12T06:54:44.107Z,22.91
2017-09-12T06:57:11.545Z,22.92
2017-09-12T06:59:38.999Z,22.93
2017-09-12T07:02:06.423Z,22.92
2017-09-12T07:04:33.846Z,22.92
2017-09-12T07:07:01.322Z,22.93
2017-09-12T07:09:28.741Z,22.92
2017-09-12T07:11:56.178Z,22.93
2017-09-12T07:14:23.630Z,22.93
2017-09-12T07:16:51.054Z,22.92
2017-09-12T07:19:18.497Z,22.92
2017-09-12T07:21:45.943Z,22.93
2017-09-12T07:24:13.360Z,22.93
2017-09-12T07:26:40.778Z,22.93
2017-09-12T07:29:08.232Z,22.92
2017-09-12T07:31:35.648Z,22.92
2017-09-12T07:34:03.156Z,22.92
2017-09-12T07:36:30.592Z,22.92
2017-09-12T07:38:58.039Z,22.92
2017-09-12T07:41:25.530Z,22.92
2017-09-12T07:43:52.983Z,22.93
2017-09-12T07:46:20.408Z,22.92
2017-09-12T07:48:47.835Z,22.92
2017-09-12T07:51:15.283Z,22.92
2017-09-12T07:53:42.700Z,22.91
2017-09-12T07:56:10.120Z,22.92
2017-09-12T07:58:37.719Z,22.92
2017-09-12T08:01:05.142Z,22.92
2017-09-12T08:03:32.569Z,22.92
2017-09-12T08:06:00.005Z,22.91
2017-09-12T08:08:27.425Z,22.92
2017-09-12T08:10:54.848Z,22.91
2017-09-12T08:13:22.335Z,22.91
2017-09-12T08:15:49.751Z,22.93
2017-09-12T08:18:17.187Z,22.93
2017-09-12T08:20:44.651Z,22.94
2017-09-12T08:23:12.088Z,22.94
2017-09-12T08:25:39.520Z,22.96
2017-09-12T08:28:07.028Z,22.96
2017-09-12T08:30:34.445Z,22.97
2017-09-12T08:33:01.864Z,22.92
2017-09-12T08:35:29.348Z,22.95
2017-09-12T08:37:56.902Z,22.97
2017-09-12T08:40:24.329Z,22.97
2017-09-12T08:42:51.805Z,22.97
2017-09-12T08:45:19.238Z,22.98
2017-09-12T08:47:46.657Z,22.98
2017-09-12T08:50:14.174Z,22.98
2017-09-12T08:52:41.587Z,22.96
2017-09-12T08:55:09.051Z,22.95
2017-09-12T08:57:36.526Z,22.95
2017-09-12T09:00:03.944Z,22.96
2017-09-12T09:02:31.545Z,22.95
2017-09-12T09:04:58.987Z,22.94
2017-09-12T09:07:26.440Z,22.95
2017-09-12T09:09:53.858Z,22.94
2017-09-12T09:12:21.304Z,22.93
2017-09-12T09:14:48.747Z,22.97
2017-09-12T09:17:16.170Z,22.96
2017-09-12T09:19:43.602Z,22.96
2017-09-12T09:22:11.024Z,22.97
2017-09-12T09:24:38.461Z,22.97
2017-09-12T09:27:05.883Z,22.97
2017-09-12T09:29:33.495Z,22.98
2017-09-12T09:32:00.912Z,22.97
2017-09-12T09:34:28.367Z,22.97
2017-09-12T09:36:55.772Z,22.98
2017-09-12T09:39:23.193Z,22.97
2017-09-12T09:41:50.627Z,22.98
2017-09-12T09:44:18.168Z,22.99
2017-09-12T09:46:45.627Z,23.00
2017-09-12T09:49:13.091Z,22.99
2017-09-12T09:51:40.507Z,23.00
2017-09-12T09:54:07.959Z,23.00
2017-09-12T09:56:35.398Z,22.99
2017-09-12T09:59:02.835Z,23.00
2017-09-12T10:01:30.256Z,22.99
2017-09-12T10:03:57.712Z,23.00
2017-09-12T10:06:25.132Z,23.02
2017-09-12T10:08:52.564Z,23.05
2017-09-12T10:11:20.036Z,23.06
2017-09-12T10:13:47.485Z,23.05
2017-09-12T10:16:14.929Z,23.06
2017-09-12T10:18:42.380Z,23.05
2017-09-12T10:21:09.904Z,23.06
2017-09-12T10:23:37.322Z,23.07
2017-09-12T10:26:05.814Z,23.03
2017-09-12T10:28:33.288Z,23.04
2017-09-12T10:31:00.895Z,23.05
2017-09-12T10:33:28.353Z,23.04
2017-09-12T10:35:55.773Z,23.04
2017-09-12T10:38:23.210Z,23.05
2017-09-12T10:40:50.657Z,23.03
2017-09-12T10:43:18.150Z,23.04
2017-09-12T10:45:45.679Z,23.05
2017-09-12T10:48:13.134Z,23.05
2017-09-12T10:50:40.563Z,23.05
2017-09-12T10:53:08.085Z,23.05
2017-09-12T10:55:36.362Z,23.05
2017-09-12T10:58:03.797Z,23.05
2017-09-12T11:00:31.331Z,23.06
2017-09-12T11:02:58.786Z,23.04
2017-09-12T11:05:26.212Z,23.04
2017-09-12T11:07:53.629Z,23.03
2017-09-12T11:10:21.074Z,23.04
2017-09-12T11:12:48.516Z,23.05
2017-09-12T11:15:15.934Z,23.05
2017-09-12T11:17:43.384Z,23.06
2017-09-12T11:20:10.805Z,23.06
2017-09-12T11:22:38.233Z,23.05
2017-09-12T11:25:05.687Z,23.05
2017-09-12T11:27:33.148Z,23.05
2017-09-12T11:30:00.584Z,23.05
2017-09-12T11:32:28.060Z,23.03
2017-09-12T11:34:55.478Z,23.03
2017-09-12T11:37:22.900Z,23.02
2017-09-12T11:39:50.341Z,23.02
2017-09-12T11:42:17.788Z,23.02
2017-09-12T11:44:45.195Z,23.02
2017-09-12T11:47:12.657Z,23.03
2017-09-12T11:49:40.076Z,23.02
2017-09-12T11:52:07.493Z,23.02
2017-09-12T11:54:34.974Z,23.01
2017-09-12T11:57:03.359Z,23.00
2017-09-12T11:59:30.929Z,23.01
2017-09-12T12:01:58.373Z,23.01
2017-09-12T12:04:26.362Z,23.01
2017-09-12T12:06:53.795Z,23.02
2017-09-12T12:09:21.239Z,23.02
2017-09-12T12:11:48.661Z,23.02
2017-09-12T12:14:16.084Z,23.03
2017-09-12T12:16:43.594Z,23.02
2017-09-12T12:19:11.036Z,23.01
2017-09-12T12:21:38.456Z,23.00
2017-09-12T12:24:05.960Z,23.02
2017-09-12T12:26:33.373Z,23.02
2017-09-12T12:29:00.816Z,23.02
2017-09-12T12:31:28.293Z,23.04
2017-09-12T12:33:55.746Z,23.03
2017-09-12T12:36:23.158Z,23.02
2017-09-12T12:38:50.659Z,23.04
2017-09-12T12:41:18.103Z,23.04
2017-09-12T12:43:45.530Z,23.04
2017-09-12T12:46:13.005Z,23.05
2017-09-12T12:48:40.430Z,23.05
2017-09-12T12:51:08.378Z,23.05
2017-09-12T12:53:35.864Z,23.05
2017-09-12T12:56:03.295Z,23.05
2017-09-12T12:58:30.728Z,23.04
2017-09-12T13:00:58.296Z,23.03
2017-09-12T13:03:25.713Z,23.03
2017-09-12T13:05:53.137Z,23.02
2017-09-12T13:08:20.595Z,23.02
2017-09-12T13:10:48.024Z,23.01
2017-09-12T13:13:15.437Z,23.02
2017-09-12T13:15:42.929Z,23.03
2017-09-12T13:18:10.370Z,23.02
2017-09-12T13:20:37.822Z,23.02
2017-09-12T13:23:05.301Z,23.01
2017-09-12T13:25:32.728Z,23.02
2017-09-12T13:28:00.156Z,23.00
2017-09-12T13:30:27.599Z,23.01
2017-09-12T13:32:55.046Z,23.01
2017-09-12T13:35:22.450Z,23.00
2017-09-12T13:37:49.970Z,23.01
2017-09-12T13:40:17.395Z,23.00
2017-09-12T13:42:45.625Z,22.99
2017-09-12T13:45:13.106Z,23.01
2017-09-12T13:47:40.525Z,23.01
2017-09-12T13:50:07.954Z,23.01
2017-09-12T13:52:35.411Z,23.01
2017-09-12T13:55:02.850Z,23.01
2017-09-12T13:57:30.315Z,23.00
2017-09-12T13:59:57.740Z,23.00
2017-09-12T14:02:25.148Z,23.00
2017-09-12T14:04:52.583Z,23.00
2017-09-12T14:07:20.034Z,23.01
2017-09-12T14:09:47.460Z,23.01
2017-09-12T14:12:14.904Z,23.00
2017-09-12T14:14:42.463Z,22.98
2017-09-12T14:17:09.884Z,22.98
2017-09-12T14:19:37.317Z,22.98
2017-09-12T14:22:05.293Z,22.97
2017-09-12T14:24:32.728Z,22.98
2017-09-12T14:27:00.173Z,22.98
2017-09-12T14:29:27.977Z,22.98
2017-09-12T14:31:55.582Z,22.99
2017-09-12T14:34:23.110Z,22.99
2017-09-12T14:36:50.619Z,22.99
2017-09-12T14:39:18.143Z,22.99
2017-09-12T14:41:45.560Z,22.99
2017-09-12T14:44:13.000Z,22.99
2017-09-12T14:46:40.423Z,23.00
2017-09-12T14:49:07.853Z,23.00
2017-09-12T14:51:35.305Z,22.98
2017-09-12T14:54:02.727Z,22.98
2017-09-12T14:56:30.164Z,22.97
2017-09-12T14:58:57.593Z,22.98
2017-09-12T15:01:25.028Z,22.99
2017-09-12T15:03:52.451Z,22.97
2017-09-12T15:06:19.917Z,22.96
2017-09-12T15:08:47.350Z,22.99
2017-09-12T15:11:14.800Z,22.97
2017-09-12T15:13:42.313Z,22.97
2017-09-12T15:16:09.724Z,23.00
2017-09-12T15:18:37.166Z,23.01
2017-09-12T15:21:04.623Z,23.01
2017-09-12T15:23:32.039Z,23.01
2017-09-12T15:25:59.451Z,23.02
2017-09-12T15:28:26.919Z,23.01
2017-09-12T15:30:54.338Z,23.01
2017-09-12T15:33:21.784Z,23.01
2017-09-12T15:35:49.256Z,23.01
2017-09-12T15:38:16.685Z,23.02
2017-09-12T15:40:44.099Z,23.02
2017-09-12T15:43:11.515Z,23.02
2017-09-12T15:45:38.936Z,23.02
2017-09-12T15:48:06.410Z,23.02
2017-09-12T15:50:33.968Z,23.01
2017-09-12T15:53:01.408Z,22.98
2017-09-12T15:55:28.857Z,22.97
2017-09-12T15:57:56.314Z,22.99
2017-09-12T16:00:23.747Z,23.00
2017-09-12T16:02:51.172Z,23.00
2017-09-12T16:05:18.706Z,23.00
2017-09-12T16:07:46.164Z,22.98
2017-09-12T16:10:13.586Z,23.00
2017-09-12T16:12:41.063Z,23.00
2017-09-12T16:15:08.512Z,23.01
2017-09-12T16:17:35.961Z,22.99
2017-09-12T16:20:03.436Z,22.97
2017-09-12T16:22:30.922Z,22.97
2017-09-12T16:24:58.789Z,22.97
2017-09-12T16:27:26.243Z,22.97
2017-09-12T16:29:53.651Z,22.98
2017-09-12T16:32:21.091Z,22.98
2017-09-12T16:34:48.554Z,22.97
2017-09-12T16:37:16.130Z,22.98
2017-09-12T16:39:43.689Z,22.98
2017-09-12T16:42:11.170Z,23.01
2017-09-12T16:44:38.593Z,23.05
2017-09-12T16:47:06.019Z,23.09
2017-09-12T16:49:33.466Z,23.11
2017-09-12T16:52:00.940Z,23.11
2017-09-12T16:54:28.367Z,23.14
2017-09-12T16:56:55.860Z,23.15
2017-09-12T16:59:23.373Z,23.15
2017-09-12T17:01:50.806Z,23.13
2017-09-12T17:04:18.314Z,23.12
2017-09-12T17:06:45.801Z,23.12
2017-09-12T17:09:13.309Z,23.11
2017-09-12T17:11:40.827Z,23.11
2017-09-12T17:14:08.528Z,23.09
2017-09-12T17:16:36.041Z,23.08
2017-09-12T17:19:03.565Z,23.09
2017-09-12T17:21:31.062Z,23.08
2017-09-12T17:23:58.642Z,23.09
2017-09-12T17:26:26.172Z,23.10
2017-09-12T17:28:53.693Z,23.10
2017-09-12T17:31:21.222Z,23.08
2017-09-12T17:33:48.767Z,23.06
2017-09-12T17:36:16.638Z,23.05
2017-09-12T17:38:44.192Z,23.04
2017-09-12T17:41:12.037Z,23.06
2017-09-12T17:43:39.795Z,23.06
2017-09-12T17:46:08.109Z,23.05
2017-09-12T17:48:36.078Z,23.07
2017-09-12T17:51:03.936Z,23.08
2017-09-12T17:53:31.918Z,23.07
2017-09-12T17:56:00.495Z,23.07
2017-09-12T17:58:28.352Z,23.08
2017-09-12T18:00:56.015Z,23.06
2017-09-12T18:03:23.625Z,23.06
2017-09-12T18:05:51.144Z,23.05
2017-09-12T18:08:19.003Z,23.05
2017-09-12T18:10:46.617Z,23.04
2017-09-12T18:13:14.217Z,23.03
2017-09-12T18:15:41.724Z,23.05
2017-09-12T18:18:09.270Z,23.05
2017-09-12T18:20:36.861Z,23.05
2017-09-12T18:23:04.451Z,23.04
2017-09-12T18:25:31.972Z,23.03
2017-09-12T18:27:59.605Z,23.03
2017-09-12T18:30:27.106Z,23.03
2017-09-12T18:32:54.603Z,23.04
2017-09-12T18:35:22.607Z,23.04
2017-09-12T18:37:50.205Z,23.04
2017-09-12T18:40:17.727Z,23.04
2017-09-12T18:42:45.335Z,23.03
2017-09-12T18:45:12.909Z,23.03
2017-09-12T18:47:40.448Z,23.03
2017-09-12T18:50:07.957Z,23.02
2017-09-12T18:52:35.519Z,23.02
2017-09-12T18:55:03.066Z,23.02
2017-09-12T18:57:30.565Z,23.02
2017-09-12T18:59:58.072Z,23.02
2017-09-12T19:02:25.600Z,23.02
2017-09-12T19:04:53.092Z,23.02
2017-09-12T19:07:20.584Z,23.02
2017-09-12T19:09:48.115Z,23.01
2017-09-12T19:12:15.616Z,23.00
2017-09-12T19:14:43.130Z,23.00
2017-09-12T19:17:11.623Z,23.00
2017-09-12T19:19:39.140Z,22.99
2017-09-12T19:22:06.686Z,22.99
2017-09-12T19:24:34.216Z,22.99
2017-09-12T19:27:01.702Z,22.98
2017-09-12T19:29:29.306Z,22.98
2017-09-12T19:31:56.855Z,22.94
2017-09-12T19:34:24.357Z,22.95
2017-09-12T19:36:51.859Z,22.97
2017-09-12T19:39:19.409Z,22.97
2017-09-12T19:41:46.906Z,22.97
2017-09-12T19:44:14.420Z,22.95
2017-09-12T19:46:42.174Z,22.96
2017-09-12T19:49:09.732Z,22.96
2017-09-12T19:51:37.256Z,22.96
2017-09-12T19:54:05.768Z,22.96
2017-09-12T19:56:33.270Z,22.95
2017-09-12T19:59:00.769Z,22.95
2017-09-12T20:01:28.298Z,22.95
2017-09-12T20:03:55.814Z,22.95
2017-09-12T20:06:23.341Z,22.94
2017-09-12T20:08:50.899Z,22.93
2017-09-12T20:11:18.379Z,22.94
2017-09-12T20:13:45.937Z,22.93
2017-09-12T20:16:13.453Z,22.93
2017-09-12T20:18:40.957Z,22.93
2017-09-12T20:21:08.474Z,22.93
2017-09-12T20:23:36.175Z,22.93
2017-09-12T20:26:03.667Z,22.91
2017-09-12T20:28:31.149Z,22.91
2017-09-12T20:30:58.702Z,22.91
2017-09-12T20:33:26.245Z,22.92
2017-09-12T20:35:53.766Z,22.91
2017-09-12T20:38:21.423Z,22.91
2017-09-12T20:40:48.954Z,22.91
2017-09-12T20:43:16.447Z,22.92
2017-09-12T20:45:43.983Z,22.91
2017-09-12T20:48:11.484Z,22.89
2017-09-12T20:50:38.996Z,22.90
2017-09-12T20:53:06.546Z,22.90
2017-09-12T20:55:34.045Z,22.92
2017-09-12T20:58:01.720Z,22.89
2017-09-12T21:00:29.263Z,22.90
2017-09-12T21:02:56.765Z,22.90
2017-09-12T21:05:24.839Z,22.91
2017-09-12T21:07:52.484Z,22.91
2017-09-12T21:10:20.014Z,22.92
2017-09-12T21:12:47.521Z,22.91
2017-09-12T21:15:15.046Z,22.90
2017-09-12T21:17:43.254Z,22.90
2017-09-12T21:20:10.748Z,22.90
2017-09-12T21:22:38.405Z,22.91
2017-09-12T21:25:05.910Z,22.91
2017-09-12T21:27:33.434Z,22.90
2017-09-12T21:30:00.977Z,22.91
2017-09-12T21:32:28.459Z,22.89
2017-09-12T21:34:55.956Z,22.89
2017-09-12T21:37:23.482Z,22.87
2017-09-12T21:39:50.979Z,22.88
2017-09-12T21:42:18.473Z,22.87
2017-09-12T21:44:46.000Z,22.86
2017-09-12T21:47:13.482Z,22.87
2017-09-12T21:49:41.034Z,22.86
2017-09-12T21:52:08.576Z,22.87
2017-09-12T21:54:36.081Z,22.84
2017-09-12T21:57:03.586Z,22.83
2017-09-12T21:59:31.115Z,22.82
2017-09-12T22:01:58.697Z,22.83
2017-09-12T22:04:26.206Z,22.83
2017-09-12T22:06:53.742Z,22.82
2017-09-12T22:09:21.307Z,22.82
2017-09-12T22:11:48.854Z,22.82
2017-09-12T22:14:16.377Z,22.83
2017-09-12T22:16:43.871Z,22.82
2017-09-12T22:19:11.424Z,22.82
2017-09-12T22:21:38.943Z,22.82
2017-09-12T22:24:06.427Z,22.82
2017-09-12T22:26:33.929Z,22.80
2017-09-12T22:29:01.462Z,22.81
2017-09-12T22:31:28.986Z,22.81
2017-09-12T22:33:56.465Z,22.80
2017-09-12T22:36:23.972Z,22.81
2017-09-12T22:38:51.474Z,22.79
2017-09-12T22:41:18.985Z,22.79
2017-09-12T22:43:46.624Z,22.79
2017-09-12T22:46:14.110Z,22.79
2017-09-12T22:48:41.647Z,22.78
2017-09-12T22:51:09.167Z,22.78
2017-09-12T22:53:36.651Z,22.78
2017-09-12T22:56:04.142Z,22.78
2017-09-12T22:58:31.674Z,22.78
2017-09-12T23:00:59.179Z,22.77
2017-09-12T23:03:26.681Z,22.77
2017-09-12T23:05:54.205Z,22.76
2017-09-12T23:08:21.726Z,22.77
2017-09-12T23:10:49.215Z,22.75
2017-09-12T23:13:16.718Z,22.76
2017-09-12T23:15:44.209Z,22.75
2017-09-12T23:18:11.714Z,22.74
2017-09-12T23:20:39.228Z,22.75
2017-09-12T23:23:06.728Z,22.75
2017-09-12T23:25:34.218Z,22.75
2017-09-12T23:28:01.867Z,22.73
2017-09-12T23:30:29.364Z,22.73
2017-09-12T23:32:56.848Z,22.73
2017-09-12T23:35:24.402Z,22.73
2017-09-12T23:37:51.898Z,22.73
2017-09-12T23:40:19.447Z,22.74
2017-09-12T23:42:46.976Z,22.73
2017-09-12T23:45:14.479Z,22.73
2017-09-12T23:47:41.953Z,22.73
2017-09-12T23:50:09.473Z,22.72
2017-09-12T23:52:36.953Z,22.72
2017-09-12T23:55:04.487Z,22.72
2017-09-12T23:57:31.995Z,22.71
2017-09-12T23:59:59.490Z,22.72
